sensor_id;sensor_type;location;lat;lon;timestamp;pressure;altitude;pressure_sealevel;temperature
13497;BMP180;6820;49.374;8.452;2023-05-10T00:00:43;99903.47;;;22.83
13497;BMP180;6820;49.374;8.452;2023-05-10T00:04:45;99906.00;;;22.78
13497;BMP180;6820;49.374;8.452;2023-05-10T00:08:47;99901.69;;;22.77
13497;BMP180;6820;49.374;8.452;2023-05-10T00:12:48;99902.56;;;22.78
13497;BMP180;6820;49.374;8.452;2023-05-10T00:16:50;99900.84;;;22.77
13497;BMP180;6820;49.374;8.452;2023-05-10T00:20:51;99899.06;;;22.70
13497;BMP180;6820;49.374;8.452;2023-05-10T00:24:53;99894.75;;;22.66
13497;BMP180;6820;49.374;8.452;2023-05-10T00:28:55;99890.41;;;22.62
13497;BMP180;6820;49.374;8.452;2023-05-10T00:32:56;99899.00;;;22.62
13497;BMP180;6820;49.374;8.452;2023-05-10T00:36:58;99904.19;;;22.62
13497;BMP180;6820;49.374;8.452;2023-05-10T00:41:00;99896.44;;;22.64
13497;BMP180;6820;49.374;8.452;2023-05-10T00:45:06;99905.94;;;22.66
13497;BMP180;6820;49.374;8.452;2023-05-10T00:49:07;99910.22;;;22.64
13497;BMP180;6820;49.374;8.452;2023-05-10T00:53:09;99909.34;;;22.62
13497;BMP180;6820;49.374;8.452;2023-05-10T00:57:11;99916.19;;;22.53
13497;BMP180;6820;49.374;8.452;2023-05-10T01:01:13;99914.44;;;22.49
13497;BMP180;6820;49.374;8.452;2023-05-10T01:05:15;99911.84;;;22.45
13497;BMP180;6820;49.374;8.452;2023-05-10T01:09:16;99916.97;;;22.42
13497;BMP180;6820;49.374;8.452;2023-05-10T01:13:35;99916.13;;;22.43
13497;BMP180;6820;49.374;8.452;2023-05-10T01:17:40;99922.16;;;22.46
13497;BMP180;6820;49.374;8.452;2023-05-10T01:26:36;99909.25;;;22.46
13497;BMP180;6820;49.374;8.452;2023-05-10T01:39:24;99935.91;;;22.44
13497;BMP180;6820;49.374;8.452;2023-05-10T01:43:30;99930.69;;;22.35
13497;BMP180;6820;49.374;8.452;2023-05-10T01:47:40;99928.09;;;22.33
13497;BMP180;6820;49.374;8.452;2023-05-10T01:51:50;99930.69;;;22.35
13497;BMP180;6820;49.374;8.452;2023-05-10T01:55:55;99931.53;;;22.32
13497;BMP180;6820;49.374;8.452;2023-05-10T01:59:57;99931.53;;;22.30
13497;BMP180;6820;49.374;8.452;2023-05-10T02:04:01;99938.38;;;22.23
13497;BMP180;6820;49.374;8.452;2023-05-10T02:08:06;99942.66;;;22.26
13497;BMP180;6820;49.374;8.452;2023-05-10T02:12:08;99943.53;;;22.28
13497;BMP180;6820;49.374;8.452;2023-05-10T02:16:11;99941.72;;;22.15
13497;BMP180;6820;49.374;8.452;2023-05-10T02:20:16;99951.19;;;22.14
13497;BMP180;6820;49.374;8.452;2023-05-10T02:24:18;99946.06;;;22.22
13497;BMP180;6820;49.374;8.452;2023-05-10T02:28:21;99952.97;;;22.21
13497;BMP180;6820;49.374;8.452;2023-05-10T02:32:24;99956.38;;;22.20
13497;BMP180;6820;49.374;8.452;2023-05-10T02:36:28;99955.53;;;22.18
13497;BMP180;6820;49.374;8.452;2023-05-10T02:40:32;99955.56;;;22.24
13497;BMP180;6820;49.374;8.452;2023-05-10T02:44:36;99955.53;;;22.23
13497;BMP180;6820;49.374;8.452;2023-05-10T02:48:38;99971.03;;;22.21
13497;BMP180;6820;49.374;8.452;2023-05-10T02:52:56;99965.84;;;22.20
13497;BMP180;6820;49.374;8.452;2023-05-10T02:57:04;99969.25;;;22.14
13497;BMP180;6820;49.374;8.452;2023-05-10T03:01:06;99970.09;;;22.15
13497;BMP180;6820;49.374;8.452;2023-05-10T03:05:09;99964.06;;;22.11
13497;BMP180;6820;49.374;8.452;2023-05-10T03:09:11;99975.25;;;22.12
13497;BMP180;6820;49.374;8.452;2023-05-10T03:13:28;99971.72;;;22.07
13497;BMP180;6820;49.374;8.452;2023-05-10T03:17:41;99973.38;;;22.00
13497;BMP180;6820;49.374;8.452;2023-05-10T03:21:50;99972.44;;;21.90
13497;BMP180;6820;49.374;8.452;2023-05-10T03:25:53;99969.75;;;21.79
13497;BMP180;6820;49.374;8.452;2023-05-10T03:29:56;99969.59;;;21.66
13497;BMP180;6820;49.374;8.452;2023-05-10T03:33:59;99984.09;;;21.54
13497;BMP180;6820;49.374;8.452;2023-05-10T03:38:01;99976.25;;;21.46
13497;BMP180;6820;49.374;8.452;2023-05-10T03:42:03;99983.13;;;21.47
13497;BMP180;6820;49.374;8.452;2023-05-10T03:46:05;99985.75;;;21.49
13497;BMP180;6820;49.374;8.452;2023-05-10T03:50:08;99990.00;;;21.47
13497;BMP180;6820;49.374;8.452;2023-05-10T03:54:09;99989.09;;;21.40
13497;BMP180;6820;49.374;8.452;2023-05-10T03:58:11;99989.03;;;21.36
13497;BMP180;6820;49.374;8.452;2023-05-10T04:02:13;99996.63;;;21.29
13497;BMP180;6820;49.374;8.452;2023-05-10T04:06:15;100003.44;;;21.24
13497;BMP180;6820;49.374;8.452;2023-05-10T04:10:16;100003.41;;;21.21
13497;BMP180;6820;49.374;8.452;2023-05-10T04:14:19;100015.38;;;21.19
13497;BMP180;6820;49.374;8.452;2023-05-10T04:18:21;100016.25;;;21.16
13497;BMP180;6820;49.374;8.452;2023-05-10T04:22:22;100011.06;;;21.15
13497;BMP180;6820;49.374;8.452;2023-05-10T04:26:24;100018.78;;;21.15
13497;BMP180;6820;49.374;8.452;2023-05-10T04:30:26;100017.94;;;21.16
13497;BMP180;6820;49.374;8.452;2023-05-10T04:34:30;100009.38;;;21.17
13497;BMP180;6820;49.374;8.452;2023-05-10T04:38:32;100011.09;;;21.16
13497;BMP180;6820;49.374;8.452;2023-05-10T04:42:33;100011.94;;;21.17
13497;BMP180;6820;49.374;8.452;2023-05-10T04:46:35;100014.56;;;21.20
13497;BMP180;6820;49.374;8.452;2023-05-10T04:50:37;100022.28;;;21.20
13497;BMP180;6820;49.374;8.452;2023-05-10T04:54:38;100016.28;;;21.21
13497;BMP180;6820;49.374;8.452;2023-05-10T04:58:40;100024.88;;;21.20
13497;BMP180;6820;49.374;8.452;2023-05-10T05:02:43;100020.53;;;21.17
13497;BMP180;6820;49.374;8.452;2023-05-10T05:06:45;100024.06;;;21.24
13497;BMP180;6820;49.374;8.452;2023-05-10T05:10:48;100019.03;;;21.33
13497;BMP180;6820;49.374;8.452;2023-05-10T05:14:51;100020.06;;;21.43
13497;BMP180;6820;49.374;8.452;2023-05-10T05:18:53;100026.22;;;21.56
13497;BMP180;6820;49.374;8.452;2023-05-10T05:22:54;100030.53;;;21.58
13497;BMP180;6820;49.374;8.452;2023-05-10T05:26:56;100033.97;;;21.57
13497;BMP180;6820;49.374;8.452;2023-05-10T05:30:58;100037.47;;;21.62
13497;BMP180;6820;49.374;8.452;2023-05-10T05:34:59;100031.56;;;21.72
13497;BMP180;6820;49.374;8.452;2023-05-10T05:39:01;100036.00;;;21.83
13497;BMP180;6820;49.374;8.452;2023-05-10T05:43:03;100033.63;;;22.02
13497;BMP180;6820;49.374;8.452;2023-05-10T05:47:05;100038.13;;;22.18
13497;BMP180;6820;49.374;8.452;2023-05-10T05:51:06;100038.19;;;22.27
13497;BMP180;6820;49.374;8.452;2023-05-10T05:55:08;100048.59;;;22.36
13497;BMP180;6820;49.374;8.452;2023-05-10T05:59:10;100056.38;;;22.39
13497;BMP180;6820;49.374;8.452;2023-05-10T06:03:12;100058.16;;;22.43
13497;BMP180;6820;49.374;8.452;2023-05-10T06:07:14;100080.63;;;22.53
13497;BMP180;6820;49.374;8.452;2023-05-10T06:11:15;100063.47;;;22.61
13497;BMP180;6820;49.374;8.452;2023-05-10T06:15:17;100082.38;;;22.58
13497;BMP180;6820;49.374;8.452;2023-05-10T06:19:19;100082.44;;;22.64
13497;BMP180;6820;49.374;8.452;2023-05-10T06:23:20;100084.22;;;22.72
13497;BMP180;6820;49.374;8.452;2023-05-10T06:27:23;100098.16;;;22.86
13497;BMP180;6820;49.374;8.452;2023-05-10T06:31:25;100105.09;;;22.93
13497;BMP180;6820;49.374;8.452;2023-05-10T06:35:28;100095.66;;;22.98
13497;BMP180;6820;49.374;8.452;2023-05-10T06:39:29;100095.63;;;22.93
13497;BMP180;6820;49.374;8.452;2023-05-10T06:43:31;100104.16;;;22.84
13497;BMP180;6820;49.374;8.452;2023-05-10T06:47:33;100095.44;;;22.71
13497;BMP180;6820;49.374;8.452;2023-05-10T06:51:39;100101.41;;;22.70
13497;BMP180;6820;49.374;8.452;2023-05-10T06:55:41;100111.72;;;22.64
13497;BMP180;6820;49.374;8.452;2023-05-10T06:59:43;100101.56;;;22.84
13497;BMP180;6820;49.374;8.452;2023-05-10T07:03:45;100105.28;;;23.17
13497;BMP180;6820;49.374;8.452;2023-05-10T07:07:46;100112.28;;;23.35
13497;BMP180;6820;49.374;8.452;2023-05-10T07:11:48;100113.19;;;23.45
13497;BMP180;6820;49.374;8.452;2023-05-10T07:15:49;100123.63;;;23.55
13497;BMP180;6820;49.374;8.452;2023-05-10T07:19:51;100102.16;;;23.74
13497;BMP180;6820;49.374;8.452;2023-05-10T07:23:53;100097.97;;;23.96
13497;BMP180;6820;49.374;8.452;2023-05-10T07:27:55;100089.34;;;24.11
13497;BMP180;6820;49.374;8.452;2023-05-10T07:31:57;100097.19;;;24.24
13497;BMP180;6820;49.374;8.452;2023-05-10T07:35:59;100100.66;;;24.29
13497;BMP180;6820;49.374;8.452;2023-05-10T07:40:01;100100.66;;;24.38
13497;BMP180;6820;49.374;8.452;2023-05-10T07:44:03;100102.41;;;24.46
13497;BMP180;6820;49.374;8.452;2023-05-10T07:48:05;100107.59;;;24.47
13497;BMP180;6820;49.374;8.452;2023-05-10T07:52:07;100104.13;;;24.54
13497;BMP180;6820;49.374;8.452;2023-05-10T07:56:29;100115.41;;;24.77
13497;BMP180;6820;49.374;8.452;2023-05-10T08:00:31;100105.06;;;24.93
13497;BMP180;6820;49.374;8.452;2023-05-10T08:04:32;100112.78;;;25.18
13497;BMP180;6820;49.374;8.452;2023-05-10T08:08:34;100105.84;;;25.37
13497;BMP180;6820;49.374;8.452;2023-05-10T08:12:36;100116.19;;;25.47
13497;BMP180;6820;49.374;8.452;2023-05-10T08:16:37;100111.88;;;25.59
13497;BMP180;6820;49.374;8.452;2023-05-10T08:20:39;100122.25;;;25.49
13497;BMP180;6820;49.374;8.452;2023-05-10T08:24:41;100112.78;;;25.26
13497;BMP180;6820;49.374;8.452;2023-05-10T08:28:43;100119.69;;;25.37
13497;BMP180;6820;49.374;8.452;2023-05-10T08:32:45;100117.09;;;25.24
13497;BMP180;6820;49.374;8.452;2023-05-10T08:36:48;100116.25;;;25.28
13497;BMP180;6820;49.374;8.452;2023-05-10T08:40:52;100124.94;;;25.16
13497;BMP180;6820;49.374;8.452;2023-05-10T08:44:59;100124.06;;;24.88
13497;BMP180;6820;49.374;8.452;2023-05-10T08:49:02;100128.31;;;24.62
13497;BMP180;6820;49.374;8.452;2023-05-10T08:53:13;100139.53;;;24.42
13497;BMP180;6820;49.374;8.452;2023-05-10T08:57:15;100145.56;;;24.37
13497;BMP180;6820;49.374;8.452;2023-05-10T09:01:18;100148.16;;;24.35
13497;BMP180;6820;49.374;8.452;2023-05-10T09:05:19;100153.34;;;24.38
13497;BMP180;6820;49.374;8.452;2023-05-10T09:09:21;100145.59;;;24.43
13497;BMP180;6820;49.374;8.452;2023-05-10T09:13:24;100149.97;;;24.82
13497;BMP180;6820;49.374;8.452;2023-05-10T09:17:28;100155.13;;;25.37
13497;BMP180;6820;49.374;8.452;2023-05-10T09:21:30;100149.03;;;25.69
13497;BMP180;6820;49.374;8.452;2023-05-10T09:25:32;100158.63;;;25.52
13497;BMP180;6820;49.374;8.452;2023-05-10T09:29:39;100160.34;;;25.28
13497;BMP180;6820;49.374;8.452;2023-05-10T09:33:45;100163.81;;;25.31
13497;BMP180;6820;49.374;8.452;2023-05-10T09:37:50;100163.81;;;25.43
13497;BMP180;6820;49.374;8.452;2023-05-10T09:41:51;100158.56;;;25.64
13497;BMP180;6820;49.374;8.452;2023-05-10T09:45:56;100155.97;;;25.68
13497;BMP180;6820;49.374;8.452;2023-05-10T09:49:58;100162.94;;;25.35
13497;BMP180;6820;49.374;8.452;2023-05-10T09:54:15;100171.53;;;24.69
13497;BMP180;6820;49.374;8.452;2023-05-10T09:58:17;100181.81;;;24.35
13497;BMP180;6820;49.374;8.452;2023-05-10T10:02:19;100193.75;;;24.07
13497;BMP180;6820;49.374;8.452;2023-05-10T10:06:21;100195.44;;;23.88
13497;BMP180;6820;49.374;8.452;2023-05-10T10:10:31;100181.53;;;23.75
13497;BMP180;6820;49.374;8.452;2023-05-10T10:14:34;100193.53;;;23.62
13497;BMP180;6820;49.374;8.452;2023-05-10T10:18:36;100196.69;;;23.24
13497;BMP180;6820;49.374;8.452;2023-05-10T10:22:41;100192.16;;;23.00
13497;BMP180;6820;49.374;8.452;2023-05-10T10:26:44;100192.41;;;23.28
13497;BMP180;6820;49.374;8.452;2023-05-10T10:30:48;100190.19;;;23.78
13497;BMP180;6820;49.374;8.452;2023-05-10T10:34:51;100182.72;;;24.49
13497;BMP180;6820;49.374;8.452;2023-05-10T10:39:01;100184.56;;;25.19
13497;BMP180;6820;49.374;8.452;2023-05-10T10:43:25;100177.59;;;25.71
13497;BMP180;6820;49.374;8.452;2023-05-10T10:47:28;100172.31;;;25.98
13497;BMP180;6820;49.374;8.452;2023-05-10T10:51:38;100171.41;;;26.03
13497;BMP180;6820;49.374;8.452;2023-05-10T10:55:49;100170.59;;;26.01
13497;BMP180;6820;49.374;8.452;2023-05-10T10:59:50;100167.13;;;25.91
13497;BMP180;6820;49.374;8.452;2023-05-10T11:08:06;100187.06;;;25.83
13497;BMP180;6820;49.374;8.452;2023-05-10T11:12:08;100192.31;;;25.72
13497;BMP180;6820;49.374;8.452;2023-05-10T11:16:19;100194.94;;;25.55
13497;BMP180;6820;49.374;8.452;2023-05-10T11:20:21;100194.94;;;25.58
13497;BMP180;6820;49.374;8.452;2023-05-10T11:24:27;100185.38;;;25.64
13497;BMP180;6820;49.374;8.452;2023-05-10T11:28:29;100181.03;;;25.81
13497;BMP180;6820;49.374;8.452;2023-05-10T11:32:31;100178.34;;;26.07
13497;BMP180;6820;49.374;8.452;2023-05-10T11:36:34;100190.44;;;26.23
13497;BMP180;6820;49.374;8.452;2023-05-10T11:40:37;100194.66;;;26.40
13497;BMP180;6820;49.374;8.452;2023-05-10T11:44:39;100197.19;;;26.55
13497;BMP180;6820;49.374;8.452;2023-05-10T11:48:42;100189.28;;;26.70
13497;BMP180;6820;49.374;8.452;2023-05-10T11:52:44;100191.88;;;26.73
13497;BMP180;6820;49.374;8.452;2023-05-10T11:56:45;100187.59;;;26.69
13497;BMP180;6820;49.374;8.452;2023-05-10T12:00:47;100201.50;;;26.59
13497;BMP180;6820;49.374;8.452;2023-05-10T12:04:50;100190.16;;;26.76
13497;BMP180;6820;49.374;8.452;2023-05-10T12:08:52;100196.16;;;26.86
13497;BMP180;6820;49.374;8.452;2023-05-10T12:12:56;100196.00;;;27.06
13497;BMP180;6820;49.374;8.452;2023-05-10T12:16:57;100207.13;;;27.23
13497;BMP180;6820;49.374;8.452;2023-05-10T12:21:03;100196.78;;;27.16
13497;BMP180;6820;49.374;8.452;2023-05-10T12:25:05;100207.28;;;27.04
13497;BMP180;6820;49.374;8.452;2023-05-10T12:29:13;100209.94;;;27.01
13497;BMP180;6820;49.374;8.452;2023-05-10T12:33:17;100212.38;;;27.22
13497;BMP180;6820;49.374;8.452;2023-05-10T12:37:24;100206.78;;;27.61
13497;BMP180;6820;49.374;8.452;2023-05-10T12:41:25;100201.63;;;27.58
13497;BMP180;6820;49.374;8.452;2023-05-10T12:45:27;100205.84;;;27.73
13497;BMP180;6820;49.374;8.452;2023-05-10T12:49:28;100200.44;;;27.89
13497;BMP180;6820;49.374;8.452;2023-05-10T12:53:30;100207.31;;;27.97
13497;BMP180;6820;49.374;8.452;2023-05-10T12:57:32;100203.91;;;27.91
13497;BMP180;6820;49.374;8.452;2023-05-10T13:01:34;100203.09;;;27.85
13497;BMP180;6820;49.374;8.452;2023-05-10T13:05:36;100198.38;;;28.19
13497;BMP180;6820;49.374;8.452;2023-05-10T13:09:37;100207.00;;;28.22
13497;BMP180;6820;49.374;8.452;2023-05-10T13:13:39;100203.00;;;27.92
13497;BMP180;6820;49.374;8.452;2023-05-10T13:17:41;100198.22;;;27.52
13497;BMP180;6820;49.374;8.452;2023-05-10T13:21:44;100213.16;;;27.34
13497;BMP180;6820;49.374;8.452;2023-05-10T13:25:45;100216.66;;;27.27
13497;BMP180;6820;49.374;8.452;2023-05-10T13:29:47;100209.59;;;27.42
13497;BMP180;6820;49.374;8.452;2023-05-10T13:33:49;100201.75;;;27.45
13497;BMP180;6820;49.374;8.452;2023-05-10T13:37:51;100204.19;;;27.63
13497;BMP180;6820;49.374;8.452;2023-05-10T13:41:54;100209.38;;;27.67
13497;BMP180;6820;49.374;8.452;2023-05-10T13:45:56;100202.38;;;27.71
13497;BMP180;6820;49.374;8.452;2023-05-10T13:49:58;100189.97;;;27.96
13497;BMP180;6820;49.374;8.452;2023-05-10T13:54:00;100184.56;;;28.13
13497;BMP180;6820;49.374;8.452;2023-05-10T13:58:01;100189.94;;;27.99
13497;BMP180;6820;49.374;8.452;2023-05-10T14:02:03;100180.34;;;28.04
13497;BMP180;6820;49.374;8.452;2023-05-10T14:06:05;100178.72;;;27.90
13497;BMP180;6820;49.374;8.452;2023-05-10T14:10:08;100172.59;;;27.95
13497;BMP180;6820;49.374;8.452;2023-05-10T14:14:10;100188.47;;;27.72
13497;BMP180;6820;49.374;8.452;2023-05-10T14:18:12;100177.31;;;27.58
13497;BMP180;6820;49.374;8.452;2023-05-10T14:22:14;100171.41;;;27.44
13497;BMP180;6820;49.374;8.452;2023-05-10T14:26:16;100166.06;;;27.56
13497;BMP180;6820;49.374;8.452;2023-05-10T14:30:17;100162.38;;;27.78
13497;BMP180;6820;49.374;8.452;2023-05-10T14:34:19;100156.00;;;28.04
13497;BMP180;6820;49.374;8.452;2023-05-10T14:38:21;100148.75;;;28.26
13497;BMP180;6820;49.374;8.452;2023-05-10T14:42:22;100162.69;;;28.22
13497;BMP180;6820;49.374;8.452;2023-05-10T14:46:24;100152.13;;;28.34
13497;BMP180;6820;49.374;8.452;2023-05-10T14:50:26;100157.53;;;28.19
13497;BMP180;6820;49.374;8.452;2023-05-10T14:54:37;100160.25;;;28.12
13497;BMP180;6820;49.374;8.452;2023-05-10T14:58:39;100157.66;;;28.11
13497;BMP180;6820;49.374;8.452;2023-05-10T15:02:41;100146.56;;;28.61
13497;BMP180;6820;49.374;8.452;2023-05-10T15:06:43;100151.53;;;28.76
13497;BMP180;6820;49.374;8.452;2023-05-10T15:10:46;100142.78;;;28.78
13497;BMP180;6820;49.374;8.452;2023-05-10T15:14:48;100142.78;;;28.79
13497;BMP180;6820;49.374;8.452;2023-05-10T15:18:49;100151.03;;;28.48
13497;BMP180;6820;49.374;8.452;2023-05-10T15:22:51;100133.13;;;28.26
13497;BMP180;6820;49.374;8.452;2023-05-10T15:26:53;100133.06;;;28.29
13497;BMP180;6820;49.374;8.452;2023-05-10T15:30:55;100151.50;;;28.16
13497;BMP180;6820;49.374;8.452;2023-05-10T15:34:57;100137.19;;;28.45
13497;BMP180;6820;49.374;8.452;2023-05-10T15:38:59;100138.47;;;28.77
13497;BMP180;6820;49.374;8.452;2023-05-10T15:43:01;100139.22;;;28.83
13497;BMP180;6820;49.374;8.452;2023-05-10T15:47:02;100143.03;;;28.63
13497;BMP180;6820;49.374;8.452;2023-05-10T15:51:04;100147.78;;;28.33
13497;BMP180;6820;49.374;8.452;2023-05-10T15:55:07;100150.72;;;28.08
13497;BMP180;6820;49.374;8.452;2023-05-10T15:59:13;100150.91;;;27.90
13497;BMP180;6820;49.374;8.452;2023-05-10T16:03:15;100157.91;;;27.87
13497;BMP180;6820;49.374;8.452;2023-05-10T16:07:19;100153.63;;;27.83
13497;BMP180;6820;49.374;8.452;2023-05-10T16:11:21;100155.34;;;27.84
13497;BMP180;6820;49.374;8.452;2023-05-10T16:15:22;100162.56;;;27.60
13497;BMP180;6820;49.374;8.452;2023-05-10T16:19:24;100148.56;;;27.70
13497;BMP180;6820;49.374;8.452;2023-05-10T16:23:30;100157.94;;;27.84
13497;BMP180;6820;49.374;8.452;2023-05-10T16:27:32;100158.81;;;27.86
13497;BMP180;6820;49.374;8.452;2023-05-10T16:31:33;100158.28;;;27.55
13497;BMP180;6820;49.374;8.452;2023-05-10T16:35:35;100163.56;;;27.49
13497;BMP180;6820;49.374;8.452;2023-05-10T16:39:37;100160.56;;;27.86
13497;BMP180;6820;49.374;8.452;2023-05-10T16:43:39;100146.75;;;27.75
13497;BMP180;6820;49.374;8.452;2023-05-10T16:47:40;100159.13;;;27.56
13497;BMP180;6820;49.374;8.452;2023-05-10T16:51:43;100167.72;;;27.64
13497;BMP180;6820;49.374;8.452;2023-05-10T16:55:45;100165.16;;;27.60
13497;BMP180;6820;49.374;8.452;2023-05-10T16:59:46;100174.78;;;27.52
13497;BMP180;6820;49.374;8.452;2023-05-10T17:03:48;100174.00;;;27.43
13497;BMP180;6820;49.374;8.452;2023-05-10T17:07:50;100172.31;;;27.39
13497;BMP180;6820;49.374;8.452;2023-05-10T17:11:51;100179.34;;;27.28
13497;BMP180;6820;49.374;8.452;2023-05-10T17:15:53;100179.44;;;27.13
13497;BMP180;6820;49.374;8.452;2023-05-10T17:19:55;100183.94;;;26.98
13497;BMP180;6820;49.374;8.452;2023-05-10T17:23:56;100190.03;;;26.91
13497;BMP180;6820;49.374;8.452;2023-05-10T17:27:58;100191.88;;;26.76
13497;BMP180;6820;49.374;8.452;2023-05-10T17:32:00;100208.41;;;26.64
13497;BMP180;6820;49.374;8.452;2023-05-10T17:36:02;100204.19;;;26.44
13497;BMP180;6820;49.374;8.452;2023-05-10T17:40:04;100202.50;;;26.34
13497;BMP180;6820;49.374;8.452;2023-05-10T17:44:08;100205.16;;;26.24
13497;BMP180;6820;49.374;8.452;2023-05-10T17:48:09;100204.28;;;26.12
13497;BMP180;6820;49.374;8.452;2023-05-10T17:52:12;100209.56;;;25.91
13497;BMP180;6820;49.374;8.452;2023-05-10T17:56:13;100209.59;;;25.88
13497;BMP180;6820;49.374;8.452;2023-05-10T18:00:15;100219.97;;;25.87
13497;BMP180;6820;49.374;8.452;2023-05-10T18:04:17;100214.75;;;25.85
13497;BMP180;6820;49.374;8.452;2023-05-10T18:08:18;100223.44;;;25.77
13497;BMP180;6820;49.374;8.452;2023-05-10T18:12:23;100214.81;;;25.63
13497;BMP180;6820;49.374;8.452;2023-05-10T18:16:24;100218.28;;;25.53
13497;BMP180;6820;49.374;8.452;2023-05-10T18:20:27;100215.69;;;25.41
13497;BMP180;6820;49.374;8.452;2023-05-10T18:24:29;100220.88;;;25.31
13497;BMP180;6820;49.374;8.452;2023-05-10T18:28:40;100229.53;;;25.33
13497;BMP180;6820;49.374;8.452;2023-05-10T18:32:42;100221.72;;;25.18
13497;BMP180;6820;49.374;8.452;2023-05-10T18:36:44;100226.91;;;25.05
13497;BMP180;6820;49.374;8.452;2023-05-10T18:40:46;100226.91;;;24.89
13497;BMP180;6820;49.374;8.452;2023-05-10T18:44:48;100233.78;;;24.77
13497;BMP180;6820;49.374;8.452;2023-05-10T18:48:49;100238.91;;;24.68
13497;BMP180;6820;49.374;8.452;2023-05-10T18:52:52;100234.56;;;24.53
13497;BMP180;6820;49.374;8.452;2023-05-10T18:56:54;100248.34;;;24.39
13497;BMP180;6820;49.374;8.452;2023-05-10T19:00:57;100245.69;;;24.30
13497;BMP180;6820;49.374;8.452;2023-05-10T19:04:59;100249.13;;;24.25
13497;BMP180;6820;49.374;8.452;2023-05-10T19:09:01;100262.00;;;24.16
13497;BMP180;6820;49.374;8.452;2023-05-10T19:13:03;100266.25;;;24.07
13497;BMP180;6820;49.374;8.452;2023-05-10T19:17:04;100273.16;;;24.03
13497;BMP180;6820;49.374;8.452;2023-05-10T19:21:08;100270.56;;;24.00
13497;BMP180;6820;49.374;8.452;2023-05-10T19:25:11;100278.34;;;24.05
13497;BMP180;6820;49.374;8.452;2023-05-10T19:29:13;100286.13;;;24.09
13497;BMP180;6820;49.374;8.452;2023-05-10T19:33:18;100283.56;;;24.11
13497;BMP180;6820;49.374;8.452;2023-05-10T19:37:20;100287.88;;;24.10
13497;BMP180;6820;49.374;8.452;2023-05-10T19:41:21;100294.75;;;24.07
13497;BMP180;6820;49.374;8.452;2023-05-10T19:45:23;100298.16;;;24.04
13497;BMP180;6820;49.374;8.452;2023-05-10T19:49:24;100308.50;;;24.01
13497;BMP180;6820;49.374;8.452;2023-05-10T19:53:26;100305.00;;;23.90
13497;BMP180;6820;49.374;8.452;2023-05-10T19:57:28;100303.22;;;23.85
13497;BMP180;6820;49.374;8.452;2023-05-10T20:01:30;100309.22;;;23.75
13497;BMP180;6820;49.374;8.452;2023-05-10T20:05:33;100304.78;;;23.61
13497;BMP180;6820;49.374;8.452;2023-05-10T20:09:35;100328.00;;;23.52
13497;BMP180;6820;49.374;8.452;2023-05-10T20:13:37;100323.56;;;23.44
13497;BMP180;6820;49.374;8.452;2023-05-10T20:17:39;100321.78;;;23.37
13497;BMP180;6820;49.374;8.452;2023-05-10T20:21:41;100321.75;;;23.32
13497;BMP180;6820;49.374;8.452;2023-05-10T20:25:43;100315.69;;;23.30
13497;BMP180;6820;49.374;8.452;2023-05-10T20:29:45;100327.72;;;23.25
13497;BMP180;6820;49.374;8.452;2023-05-10T20:33:46;100325.06;;;23.20
13497;BMP180;6820;49.374;8.452;2023-05-10T20:37:48;100327.69;;;23.23
13497;BMP180;6820;49.374;8.452;2023-05-10T20:41:49;100319.94;;;23.23
13497;BMP180;6820;49.374;8.452;2023-05-10T20:45:51;100327.66;;;23.20
13497;BMP180;6820;49.374;8.452;2023-05-10T20:49:54;100324.13;;;23.12
13497;BMP180;6820;49.374;8.452;2023-05-10T20:53:56;100321.41;;;23.00
13497;BMP180;6820;49.374;8.452;2023-05-10T20:57:58;100323.03;;;22.92
13497;BMP180;6820;49.374;8.452;2023-05-10T21:01:59;100320.38;;;22.85
13497;BMP180;6820;49.374;8.452;2023-05-10T21:06:01;100329.56;;;22.63
13497;BMP180;6820;49.374;8.452;2023-05-10T21:10:04;100329.53;;;22.61
13497;BMP180;6820;49.374;8.452;2023-05-10T21:14:05;100328.75;;;22.66
13497;BMP180;6820;49.374;8.452;2023-05-10T21:18:08;100327.94;;;22.71
13497;BMP180;6820;49.374;8.452;2023-05-10T21:22:10;100321.09;;;22.75
13497;BMP180;6820;49.374;8.452;2023-05-10T21:26:11;100325.41;;;22.74
13497;BMP180;6820;49.374;8.452;2023-05-10T21:30:13;100315.88;;;22.72
13497;BMP180;6820;49.374;8.452;2023-05-10T21:34:15;100313.28;;;22.70
13497;BMP180;6820;49.374;8.452;2023-05-10T21:38:18;100312.34;;;22.64
13497;BMP180;6820;49.374;8.452;2023-05-10T21:42:19;100317.41;;;22.55
13497;BMP180;6820;49.374;8.452;2023-05-10T21:46:21;100317.28;;;22.45
13497;BMP180;6820;49.374;8.452;2023-05-10T21:50:23;100317.22;;;22.40
13497;BMP180;6820;49.374;8.452;2023-05-10T21:54:24;100307.66;;;22.35
13497;BMP180;6820;49.374;8.452;2023-05-10T21:58:26;100311.94;;;22.31
13497;BMP180;6820;49.374;8.452;2023-05-10T22:02:28;100314.47;;;22.30
13497;BMP180;6820;49.374;8.452;2023-05-10T22:06:30;100318.72;;;22.25
13497;BMP180;6820;49.374;8.452;2023-05-10T22:10:32;100316.94;;;22.23
13497;BMP180;6820;49.374;8.452;2023-05-10T22:14:34;100316.09;;;22.21
13497;BMP180;6820;49.374;8.452;2023-05-10T22:18:36;100314.34;;;22.18
13497;BMP180;6820;49.374;8.452;2023-05-10T22:22:38;100312.53;;;22.14
13497;BMP180;6820;49.374;8.452;2023-05-10T22:26:39;100317.66;;;22.11
13497;BMP180;6820;49.374;8.452;2023-05-10T22:30:42;100315.88;;;22.07
13497;BMP180;6820;49.374;8.452;2023-05-10T22:34:43;100319.19;;;22.00
13497;BMP180;6820;49.374;8.452;2023-05-10T22:38:45;100322.56;;;21.95
13497;BMP180;6820;49.374;8.452;2023-05-10T22:42:46;100326.81;;;21.92
13497;BMP180;6820;49.374;8.452;2023-05-10T22:46:48;100324.16;;;21.86
13497;BMP180;6820;49.374;8.452;2023-05-10T22:50:50;100332.66;;;21.82
13497;BMP180;6820;49.374;8.452;2023-05-10T22:54:51;100330.91;;;21.78
13497;BMP180;6820;49.374;8.452;2023-05-10T22:58:53;100327.41;;;21.76
13497;BMP180;6820;49.374;8.452;2023-05-10T23:02:55;100332.53;;;21.73
13497;BMP180;6820;49.374;8.452;2023-05-10T23:06:56;100336.78;;;21.71
13497;BMP180;6820;49.374;8.452;2023-05-10T23:10:58;100342.81;;;21.70
13497;BMP180;6820;49.374;8.452;2023-05-10T23:15:00;100343.66;;;21.70
13497;BMP180;6820;49.374;8.452;2023-05-10T23:19:01;100347.19;;;21.77
13497;BMP180;6820;49.374;8.452;2023-05-10T23:23:03;100349.81;;;21.78
13497;BMP180;6820;49.374;8.452;2023-05-10T23:27:05;100348.06;;;21.76
13497;BMP180;6820;49.374;8.452;2023-05-10T23:31:06;100346.25;;;21.72
13497;BMP180;6820;49.374;8.452;2023-05-10T23:35:08;100357.38;;;21.68
13497;BMP180;6820;49.374;8.452;2023-05-10T23:39:10;100365.84;;;21.61